Iranshahr, Iran
Current Conditions -  °F | °C
As of 3:00 AM on Monday 22 Dec 2014 (Local Time) from OIZI Reporting Station
Clear Clear  
Wind Chill: 46°   Ceiling: Unl
Heat Index: 48°   Visibility: 6mi
Dew Point: 28°   Wind: 5mph
Humidity: 46%   Direction: 40°NE
Pressure: 29.94"   Gusts: NA
Location:  27.21°N, 60.69°E
Report Text: OIZI 220000Z 04004KT CAVOK 09/M02 Q1014
Loading
Personal Weather Stations






























Interactive Weather Map New forecast layout! Learn more

10-Day Weather Forecast

Advertisements
Track Severe Weather on mobile